sensor_id;sensor_type;location;lat;lon;timestamp;P1;durP1;ratioP1;P2;durP2;ratioP2
19940;SDS011;10132;50.864;5.176;2023-12-22T00:00:07;133.50;;;123.27;;
19940;SDS011;10132;50.864;5.176;2023-12-22T00:02:09;122.90;;;115.40;;
19940;SDS011;10132;50.864;5.176;2023-12-22T00:04:11;411.13;;;387.13;;
19940;SDS011;10132;50.864;5.176;2023-12-22T00:06:13;351.50;;;325.73;;
19940;SDS011;10132;50.864;5.176;2023-12-22T00:08:15;194.17;;;181.93;;
19940;SDS011;10132;50.864;5.176;2023-12-22T00:10:17;62.00;;;57.37;;
19940;SDS011;10132;50.864;5.176;2023-12-22T00:12:19;225.13;;;210.40;;
19940;SDS011;10132;50.864;5.176;2023-12-22T00:14:22;132.77;;;122.47;;
19940;SDS011;10132;50.864;5.176;2023-12-22T00:16:23;309.23;;;278.67;;
19940;SDS011;10132;50.864;5.176;2023-12-22T00:18:25;125.00;;;116.07;;
19940;SDS011;10132;50.864;5.176;2023-12-22T00:20:27;121.47;;;112.23;;
19940;SDS011;10132;50.864;5.176;2023-12-22T00:22:29;117.57;;;107.40;;
19940;SDS011;10132;50.864;5.176;2023-12-22T00:24:32;92.70;;;83.03;;
19940;SDS011;10132;50.864;5.176;2023-12-22T00:26:34;79.30;;;73.47;;
19940;SDS011;10132;50.864;5.176;2023-12-22T00:28:36;191.67;;;176.90;;
19940;SDS011;10132;50.864;5.176;2023-12-22T00:30:39;78.93;;;73.27;;
19940;SDS011;10132;50.864;5.176;2023-12-22T00:32:41;69.30;;;64.77;;
19940;SDS011;10132;50.864;5.176;2023-12-22T00:34:43;170.53;;;156.93;;
19940;SDS011;10132;50.864;5.176;2023-12-22T00:36:45;82.27;;;76.00;;
19940;SDS011;10132;50.864;5.176;2023-12-22T00:38:47;52.80;;;49.03;;
19940;SDS011;10132;50.864;5.176;2023-12-22T00:40:49;51.90;;;48.13;;
19940;SDS011;10132;50.864;5.176;2023-12-22T00:42:52;228.97;;;210.80;;
19940;SDS011;10132;50.864;5.176;2023-12-22T00:44:54;124.93;;;116.57;;
19940;SDS011;10132;50.864;5.176;2023-12-22T00:46:57;145.77;;;137.43;;
19940;SDS011;10132;50.864;5.176;2023-12-22T00:48:59;382.13;;;358.47;;
19940;SDS011;10132;50.864;5.176;2023-12-22T00:51:02;347.33;;;326.73;;
19940;SDS011;10132;50.864;5.176;2023-12-22T00:53:03;506.43;;;464.33;;
19940;SDS011;10132;50.864;5.176;2023-12-22T00:55:06;204.03;;;191.33;;
19940;SDS011;10132;50.864;5.176;2023-12-22T00:57:08;332.80;;;306.43;;
19940;SDS011;10132;50.864;5.176;2023-12-22T00:59:12;572.77;;;517.93;;
19940;SDS011;10132;50.864;5.176;2023-12-22T01:01:16;497.23;;;450.23;;
19940;SDS011;10132;50.864;5.176;2023-12-22T01:03:20;576.07;;;528.47;;
19940;SDS011;10132;50.864;5.176;2023-12-22T01:05:22;285.97;;;260.97;;
19940;SDS011;10132;50.864;5.176;2023-12-22T01:07:24;201.50;;;185.97;;
19940;SDS011;10132;50.864;5.176;2023-12-22T01:09:27;237.17;;;218.83;;
19940;SDS011;10132;50.864;5.176;2023-12-22T01:11:27;174.70;;;161.47;;
19940;SDS011;10132;50.864;5.176;2023-12-22T01:13:30;294.07;;;274.93;;
19940;SDS011;10132;50.864;5.176;2023-12-22T01:15:31;264.70;;;243.70;;
19940;SDS011;10132;50.864;5.176;2023-12-22T01:17:33;124.30;;;116.47;;
19940;SDS011;10132;50.864;5.176;2023-12-22T01:19:38;280.23;;;264.03;;
19940;SDS011;10132;50.864;5.176;2023-12-22T01:21:39;217.20;;;205.37;;
19940;SDS011;10132;50.864;5.176;2023-12-22T01:23:42;577.93;;;436.10;;
19940;SDS011;10132;50.864;5.176;2023-12-22T01:25:44;309.47;;;282.47;;
19940;SDS011;10132;50.864;5.176;2023-12-22T01:27:46;161.07;;;150.20;;
19940;SDS011;10132;50.864;5.176;2023-12-22T01:29:49;90.13;;;84.53;;
19940;SDS011;10132;50.864;5.176;2023-12-22T01:31:51;130.23;;;122.20;;
19940;SDS011;10132;50.864;5.176;2023-12-22T01:33:54;165.23;;;153.63;;
19940;SDS011;10132;50.864;5.176;2023-12-22T01:35:56;103.27;;;96.90;;
19940;SDS011;10132;50.864;5.176;2023-12-22T01:37:58;84.67;;;79.20;;
19940;SDS011;10132;50.864;5.176;2023-12-22T01:40:02;232.00;;;180.23;;
19940;SDS011;10132;50.864;5.176;2023-12-22T01:42:03;48.50;;;44.60;;
19940;SDS011;10132;50.864;5.176;2023-12-22T01:44:05;78.30;;;72.63;;
19940;SDS011;10132;50.864;5.176;2023-12-22T01:46:08;130.67;;;122.27;;
19940;SDS011;10132;50.864;5.176;2023-12-22T01:48:11;183.80;;;170.93;;
19940;SDS011;10132;50.864;5.176;2023-12-22T01:50:13;325.37;;;293.87;;
19940;SDS011;10132;50.864;5.176;2023-12-22T01:52:18;237.27;;;213.10;;
19940;SDS011;10132;50.864;5.176;2023-12-22T01:54:20;272.70;;;251.13;;
19940;SDS011;10132;50.864;5.176;2023-12-22T01:56:22;114.03;;;104.23;;
19940;SDS011;10132;50.864;5.176;2023-12-22T01:58:25;171.30;;;161.43;;
19940;SDS011;10132;50.864;5.176;2023-12-22T02:00:28;131.80;;;122.30;;
19940;SDS011;10132;50.864;5.176;2023-12-22T02:02:31;189.13;;;169.70;;
19940;SDS011;10132;50.864;5.176;2023-12-22T02:04:33;519.53;;;370.33;;
19940;SDS011;10132;50.864;5.176;2023-12-22T02:06:35;208.20;;;192.87;;
19940;SDS011;10132;50.864;5.176;2023-12-22T02:08:39;604.67;;;566.97;;
19940;SDS011;10132;50.864;5.176;2023-12-22T02:10:42;488.83;;;460.33;;
19940;SDS011;10132;50.864;5.176;2023-12-22T02:12:44;603.43;;;566.77;;
19940;SDS011;10132;50.864;5.176;2023-12-22T02:14:46;494.37;;;465.17;;
19940;SDS011;10132;50.864;5.176;2023-12-22T02:16:49;410.53;;;387.17;;
19940;SDS011;10132;50.864;5.176;2023-12-22T02:18:56;535.63;;;504.07;;
19940;SDS011;10132;50.864;5.176;2023-12-22T02:21:02;503.23;;;458.33;;
19940;SDS011;10132;50.864;5.176;2023-12-22T02:23:06;631.10;;;567.77;;
19940;SDS011;10132;50.864;5.176;2023-12-22T02:25:08;768.03;;;692.93;;
19940;SDS011;10132;50.864;5.176;2023-12-22T02:27:13;492.60;;;461.50;;
19940;SDS011;10132;50.864;5.176;2023-12-22T02:29:35;470.13;;;440.13;;
19940;SDS011;10132;50.864;5.176;2023-12-22T02:31:40;469.73;;;442.67;;
19940;SDS011;10132;50.864;5.176;2023-12-22T02:33:47;465.80;;;437.67;;
19940;SDS011;10132;50.864;5.176;2023-12-22T02:35:55;305.10;;;287.13;;
19940;SDS011;10132;50.864;5.176;2023-12-22T02:38:06;326.63;;;306.97;;
19940;SDS011;10132;50.864;5.176;2023-12-22T02:40:10;359.93;;;338.23;;
19940;SDS011;10132;50.864;5.176;2023-12-22T02:42:12;435.80;;;410.27;;
19940;SDS011;10132;50.864;5.176;2023-12-22T02:44:14;550.20;;;511.93;;
19940;SDS011;10132;50.864;5.176;2023-12-22T02:46:16;610.33;;;570.27;;
19940;SDS011;10132;50.864;5.176;2023-12-22T02:48:18;457.03;;;428.53;;
19940;SDS011;10132;50.864;5.176;2023-12-22T02:50:19;443.67;;;414.47;;
19940;SDS011;10132;50.864;5.176;2023-12-22T02:52:21;399.50;;;375.10;;
19940;SDS011;10132;50.864;5.176;2023-12-22T02:54:24;320.33;;;302.13;;
19940;SDS011;10132;50.864;5.176;2023-12-22T02:56:30;243.00;;;222.87;;
19940;SDS011;10132;50.864;5.176;2023-12-22T02:58:33;72.97;;;67.77;;
19940;SDS011;10132;50.864;5.176;2023-12-22T03:00:36;74.10;;;68.80;;
19940;SDS011;10132;50.864;5.176;2023-12-22T03:02:40;71.10;;;65.97;;
19940;SDS011;10132;50.864;5.176;2023-12-22T03:04:42;84.93;;;78.93;;
19940;SDS011;10132;50.864;5.176;2023-12-22T03:06:46;73.57;;;68.17;;
19940;SDS011;10132;50.864;5.176;2023-12-22T03:08:48;315.87;;;283.67;;
19940;SDS011;10132;50.864;5.176;2023-12-22T03:10:52;72.57;;;67.27;;
19940;SDS011;10132;50.864;5.176;2023-12-22T03:12:54;100.30;;;93.43;;
19940;SDS011;10132;50.864;5.176;2023-12-22T03:14:55;301.20;;;282.20;;
19940;SDS011;10132;50.864;5.176;2023-12-22T03:16:57;282.87;;;260.93;;
19940;SDS011;10132;50.864;5.176;2023-12-22T03:18:58;321.37;;;294.67;;
19940;SDS011;10132;50.864;5.176;2023-12-22T03:21:00;156.53;;;146.47;;
19940;SDS011;10132;50.864;5.176;2023-12-22T03:23:02;107.17;;;100.20;;
19940;SDS011;10132;50.864;5.176;2023-12-22T03:25:05;137.43;;;128.43;;
19940;SDS011;10132;50.864;5.176;2023-12-22T03:27:09;242.93;;;225.23;;
19940;SDS011;10132;50.864;5.176;2023-12-22T03:29:16;106.57;;;98.67;;
19940;SDS011;10132;50.864;5.176;2023-12-22T03:31:19;136.43;;;127.53;;
19940;SDS011;10132;50.864;5.176;2023-12-22T03:33:22;111.77;;;103.47;;
19940;SDS011;10132;50.864;5.176;2023-12-22T03:35:25;345.70;;;322.97;;
19940;SDS011;10132;50.864;5.176;2023-12-22T03:37:27;241.97;;;224.73;;
19940;SDS011;10132;50.864;5.176;2023-12-22T03:39:29;155.07;;;145.30;;
19940;SDS011;10132;50.864;5.176;2023-12-22T03:41:31;216.50;;;199.13;;
19940;SDS011;10132;50.864;5.176;2023-12-22T03:43:34;169.27;;;155.07;;
19940;SDS011;10132;50.864;5.176;2023-12-22T03:45:36;93.83;;;87.83;;
19940;SDS011;10132;50.864;5.176;2023-12-22T03:47:39;196.33;;;181.83;;
19940;SDS011;10132;50.864;5.176;2023-12-22T03:49:42;185.13;;;167.97;;
19940;SDS011;10132;50.864;5.176;2023-12-22T03:51:45;173.70;;;152.83;;
19940;SDS011;10132;50.864;5.176;2023-12-22T03:53:46;110.27;;;103.63;;
19940;SDS011;10132;50.864;5.176;2023-12-22T03:55:48;184.77;;;171.77;;
19940;SDS011;10132;50.864;5.176;2023-12-22T03:57:50;160.40;;;150.23;;
19940;SDS011;10132;50.864;5.176;2023-12-22T03:59:54;84.57;;;79.13;;
19940;SDS011;10132;50.864;5.176;2023-12-22T04:01:58;133.53;;;124.83;;
19940;SDS011;10132;50.864;5.176;2023-12-22T04:04:02;298.10;;;266.20;;
19940;SDS011;10132;50.864;5.176;2023-12-22T04:06:04;162.50;;;151.03;;
19940;SDS011;10132;50.864;5.176;2023-12-22T04:08:06;178.47;;;166.03;;
19940;SDS011;10132;50.864;5.176;2023-12-22T04:10:09;570.50;;;409.27;;
19940;SDS011;10132;50.864;5.176;2023-12-22T04:12:10;376.43;;;353.33;;
19940;SDS011;10132;50.864;5.176;2023-12-22T04:14:12;362.87;;;341.97;;
19940;SDS011;10132;50.864;5.176;2023-12-22T04:16:14;285.00;;;267.03;;
19940;SDS011;10132;50.864;5.176;2023-12-22T04:18:16;193.47;;;177.80;;
19940;SDS011;10132;50.864;5.176;2023-12-22T04:20:19;146.07;;;136.80;;
19940;SDS011;10132;50.864;5.176;2023-12-22T04:22:21;143.50;;;135.20;;
19940;SDS011;10132;50.864;5.176;2023-12-22T04:24:26;111.37;;;104.30;;
19940;SDS011;10132;50.864;5.176;2023-12-22T04:26:36;131.07;;;122.27;;
19940;SDS011;10132;50.864;5.176;2023-12-22T04:28:39;119.77;;;111.93;;
19940;SDS011;10132;50.864;5.176;2023-12-22T04:30:41;46.30;;;42.87;;
19940;SDS011;10132;50.864;5.176;2023-12-22T04:32:45;120.83;;;109.93;;
19940;SDS011;10132;50.864;5.176;2023-12-22T04:34:48;117.17;;;107.83;;
19940;SDS011;10132;50.864;5.176;2023-12-22T04:36:50;188.07;;;177.03;;
19940;SDS011;10132;50.864;5.176;2023-12-22T04:38:53;213.20;;;197.70;;
19940;SDS011;10132;50.864;5.176;2023-12-22T04:40:54;868.37;;;510.37;;
19940;SDS011;10132;50.864;5.176;2023-12-22T04:42:56;399.00;;;376.73;;
19940;SDS011;10132;50.864;5.176;2023-12-22T04:44:58;523.87;;;492.90;;
19940;SDS011;10132;50.864;5.176;2023-12-22T04:46:59;592.63;;;554.53;;
19940;SDS011;10132;50.864;5.176;2023-12-22T04:49:03;587.57;;;543.17;;
19940;SDS011;10132;50.864;5.176;2023-12-22T04:51:07;523.07;;;491.70;;
19940;SDS011;10132;50.864;5.176;2023-12-22T04:53:09;572.07;;;536.10;;
19940;SDS011;10132;50.864;5.176;2023-12-22T04:55:17;519.07;;;484.57;;
19940;SDS011;10132;50.864;5.176;2023-12-22T04:57:25;455.73;;;413.40;;
19940;SDS011;10132;50.864;5.176;2023-12-22T04:59:27;379.23;;;350.33;;
19940;SDS011;10132;50.864;5.176;2023-12-22T05:01:28;456.43;;;428.63;;
19940;SDS011;10132;50.864;5.176;2023-12-22T05:03:30;558.33;;;523.60;;
19940;SDS011;10132;50.864;5.176;2023-12-22T05:05:33;602.00;;;558.57;;
19940;SDS011;10132;50.864;5.176;2023-12-22T05:07:36;539.03;;;504.80;;
19940;SDS011;10132;50.864;5.176;2023-12-22T05:09:40;601.07;;;562.40;;
19940;SDS011;10132;50.864;5.176;2023-12-22T05:11:42;586.87;;;545.03;;
19940;SDS011;10132;50.864;5.176;2023-12-22T05:13:43;527.10;;;496.50;;
19940;SDS011;10132;50.864;5.176;2023-12-22T05:15:46;670.37;;;624.37;;
19940;SDS011;10132;50.864;5.176;2023-12-22T05:17:48;615.03;;;573.50;;
19940;SDS011;10132;50.864;5.176;2023-12-22T05:19:50;408.07;;;384.67;;
19940;SDS011;10132;50.864;5.176;2023-12-22T05:21:54;425.27;;;400.67;;
19940;SDS011;10132;50.864;5.176;2023-12-22T05:23:56;385.03;;;362.23;;
19940;SDS011;10132;50.864;5.176;2023-12-22T05:25:58;505.20;;;469.43;;
19940;SDS011;10132;50.864;5.176;2023-12-22T05:28:01;365.13;;;340.50;;
19940;SDS011;10132;50.864;5.176;2023-12-22T05:30:03;658.33;;;604.80;;
19940;SDS011;10132;50.864;5.176;2023-12-22T05:32:06;696.27;;;634.37;;
19940;SDS011;10132;50.864;5.176;2023-12-22T05:34:08;671.83;;;602.97;;
19940;SDS011;10132;50.864;5.176;2023-12-22T05:36:11;466.77;;;432.47;;
19940;SDS011;10132;50.864;5.176;2023-12-22T05:38:14;323.60;;;303.97;;
19940;SDS011;10132;50.864;5.176;2023-12-22T05:40:16;534.43;;;492.33;;
19940;SDS011;10132;50.864;5.176;2023-12-22T05:42:18;461.53;;;417.77;;
19940;SDS011;10132;50.864;5.176;2023-12-22T05:44:20;417.10;;;390.00;;
19940;SDS011;10132;50.864;5.176;2023-12-22T05:46:22;406.93;;;382.63;;
19940;SDS011;10132;50.864;5.176;2023-12-22T05:48:24;379.53;;;356.93;;
19940;SDS011;10132;50.864;5.176;2023-12-22T05:50:26;487.07;;;456.70;;
19940;SDS011;10132;50.864;5.176;2023-12-22T05:52:28;556.77;;;511.37;;
19940;SDS011;10132;50.864;5.176;2023-12-22T05:54:31;557.73;;;507.37;;
19940;SDS011;10132;50.864;5.176;2023-12-22T05:56:32;618.83;;;516.00;;
19940;SDS011;10132;50.864;5.176;2023-12-22T05:58:35;303.10;;;284.87;;
19940;SDS011;10132;50.864;5.176;2023-12-22T06:00:39;549.67;;;509.20;;
19940;SDS011;10132;50.864;5.176;2023-12-22T06:02:50;544.77;;;495.17;;
19940;SDS011;10132;50.864;5.176;2023-12-22T06:04:53;360.67;;;330.63;;
19940;SDS011;10132;50.864;5.176;2023-12-22T06:06:55;273.03;;;257.17;;
19940;SDS011;10132;50.864;5.176;2023-12-22T06:08:57;334.33;;;312.77;;
19940;SDS011;10132;50.864;5.176;2023-12-22T06:11:00;279.87;;;262.73;;
19940;SDS011;10132;50.864;5.176;2023-12-22T06:13:01;364.07;;;336.13;;
19940;SDS011;10132;50.864;5.176;2023-12-22T06:15:05;280.43;;;264.67;;
19940;SDS011;10132;50.864;5.176;2023-12-22T06:17:06;476.63;;;447.77;;
19940;SDS011;10132;50.864;5.176;2023-12-22T06:19:09;622.47;;;579.17;;
19940;SDS011;10132;50.864;5.176;2023-12-22T06:21:13;611.30;;;568.80;;
19940;SDS011;10132;50.864;5.176;2023-12-22T06:23:15;636.03;;;593.27;;
19940;SDS011;10132;50.864;5.176;2023-12-22T06:25:20;714.67;;;663.97;;
19940;SDS011;10132;50.864;5.176;2023-12-22T06:27:24;572.87;;;533.90;;
19940;SDS011;10132;50.864;5.176;2023-12-22T06:29:25;653.50;;;605.70;;
19940;SDS011;10132;50.864;5.176;2023-12-22T06:31:27;611.20;;;571.97;;
19940;SDS011;10132;50.864;5.176;2023-12-22T06:33:29;683.67;;;635.77;;
19940;SDS011;10132;50.864;5.176;2023-12-22T06:35:31;582.27;;;544.97;;
19940;SDS011;10132;50.864;5.176;2023-12-22T06:37:34;497.40;;;467.57;;
19940;SDS011;10132;50.864;5.176;2023-12-22T06:39:36;637.30;;;589.37;;
19940;SDS011;10132;50.864;5.176;2023-12-22T06:41:38;824.53;;;750.37;;
19940;SDS011;10132;50.864;5.176;2023-12-22T06:43:41;593.63;;;552.70;;
19940;SDS011;10132;50.864;5.176;2023-12-22T06:45:42;326.83;;;307.10;;
19940;SDS011;10132;50.864;5.176;2023-12-22T06:47:44;328.57;;;307.60;;
19940;SDS011;10132;50.864;5.176;2023-12-22T06:49:46;251.33;;;236.63;;
19940;SDS011;10132;50.864;5.176;2023-12-22T06:51:48;333.73;;;310.67;;
19940;SDS011;10132;50.864;5.176;2023-12-22T06:53:50;306.93;;;288.63;;
19940;SDS011;10132;50.864;5.176;2023-12-22T06:55:52;262.77;;;246.93;;
19940;SDS011;10132;50.864;5.176;2023-12-22T06:57:55;299.80;;;280.93;;
19940;SDS011;10132;50.864;5.176;2023-12-22T06:59:58;307.33;;;287.00;;
19940;SDS011;10132;50.864;5.176;2023-12-22T07:02:00;421.13;;;386.07;;
19940;SDS011;10132;50.864;5.176;2023-12-22T07:04:02;506.27;;;372.67;;
19940;SDS011;10132;50.864;5.176;2023-12-22T07:06:05;286.43;;;269.00;;
19940;SDS011;10132;50.864;5.176;2023-12-22T07:08:07;261.37;;;244.07;;
19940;SDS011;10132;50.864;5.176;2023-12-22T07:10:09;339.27;;;313.47;;
19940;SDS011;10132;50.864;5.176;2023-12-22T07:12:12;182.27;;;171.10;;
19940;SDS011;10132;50.864;5.176;2023-12-22T07:14:14;286.37;;;269.43;;
19940;SDS011;10132;50.864;5.176;2023-12-22T07:16:17;185.57;;;174.30;;
19940;SDS011;10132;50.864;5.176;2023-12-22T07:18:19;390.07;;;357.97;;
19940;SDS011;10132;50.864;5.176;2023-12-22T07:20:21;318.30;;;295.63;;
19940;SDS011;10132;50.864;5.176;2023-12-22T07:22:22;406.13;;;381.27;;
19940;SDS011;10132;50.864;5.176;2023-12-22T07:24:24;361.93;;;340.60;;
19940;SDS011;10132;50.864;5.176;2023-12-22T07:26:27;516.13;;;483.03;;
19940;SDS011;10132;50.864;5.176;2023-12-22T07:28:29;511.03;;;480.07;;
19940;SDS011;10132;50.864;5.176;2023-12-22T07:30:31;522.30;;;490.90;;
19940;SDS011;10132;50.864;5.176;2023-12-22T07:32:33;411.83;;;388.30;;
19940;SDS011;10132;50.864;5.176;2023-12-22T07:34:35;332.23;;;301.77;;
19940;SDS011;10132;50.864;5.176;2023-12-22T07:36:37;341.70;;;321.47;;
19940;SDS011;10132;50.864;5.176;2023-12-22T07:38:39;398.53;;;375.40;;
19940;SDS011;10132;50.864;5.176;2023-12-22T07:40:41;216.77;;;203.53;;
19940;SDS011;10132;50.864;5.176;2023-12-22T07:42:43;314.60;;;295.63;;
19940;SDS011;10132;50.864;5.176;2023-12-22T07:44:46;264.50;;;247.37;;
19940;SDS011;10132;50.864;5.176;2023-12-22T07:46:55;392.33;;;366.37;;
19940;SDS011;10132;50.864;5.176;2023-12-22T07:49:00;351.17;;;332.17;;
19940;SDS011;10132;50.864;5.176;2023-12-22T07:51:02;493.93;;;451.83;;
19940;SDS011;10132;50.864;5.176;2023-12-22T07:53:04;518.27;;;484.20;;
19940;SDS011;10132;50.864;5.176;2023-12-22T07:55:08;617.43;;;577.30;;
19940;SDS011;10132;50.864;5.176;2023-12-22T07:57:10;558.70;;;521.30;;
19940;SDS011;10132;50.864;5.176;2023-12-22T07:59:12;597.33;;;549.33;;
19940;SDS011;10132;50.864;5.176;2023-12-22T08:01:14;517.87;;;474.77;;
19940;SDS011;10132;50.864;5.176;2023-12-22T08:03:16;140.13;;;132.23;;
19940;SDS011;10132;50.864;5.176;2023-12-22T08:05:21;122.60;;;115.10;;
19940;SDS011;10132;50.864;5.176;2023-12-22T08:07:23;320.70;;;289.37;;
19940;SDS011;10132;50.864;5.176;2023-12-22T08:09:25;406.10;;;373.30;;
19940;SDS011;10132;50.864;5.176;2023-12-22T08:11:26;309.20;;;290.20;;
19940;SDS011;10132;50.864;5.176;2023-12-22T08:13:28;228.07;;;214.73;;
19940;SDS011;10132;50.864;5.176;2023-12-22T08:15:29;242.27;;;227.20;;
19940;SDS011;10132;50.864;5.176;2023-12-22T08:17:32;175.60;;;165.57;;
19940;SDS011;10132;50.864;5.176;2023-12-22T08:19:35;347.83;;;317.00;;
19940;SDS011;10132;50.864;5.176;2023-12-22T08:21:38;252.63;;;238.53;;
19940;SDS011;10132;50.864;5.176;2023-12-22T08:23:40;211.90;;;200.37;;
19940;SDS011;10132;50.864;5.176;2023-12-22T08:25:41;245.90;;;231.70;;
19940;SDS011;10132;50.864;5.176;2023-12-22T08:27:43;358.17;;;337.77;;
19940;SDS011;10132;50.864;5.176;2023-12-22T08:29:45;423.90;;;397.43;;
19940;SDS011;10132;50.864;5.176;2023-12-22T08:31:46;348.10;;;327.87;;
19940;SDS011;10132;50.864;5.176;2023-12-22T08:33:48;537.43;;;505.20;;
19940;SDS011;10132;50.864;5.176;2023-12-22T08:35:50;694.10;;;644.23;;
19940;SDS011;10132;50.864;5.176;2023-12-22T08:37:53;639.87;;;597.37;;
19940;SDS011;10132;50.864;5.176;2023-12-22T08:39:55;797.30;;;731.37;;
19940;SDS011;10132;50.864;5.176;2023-12-22T08:41:57;687.23;;;640.80;;
19940;SDS011;10132;50.864;5.176;2023-12-22T08:43:59;570.17;;;536.27;;
19940;SDS011;10132;50.864;5.176;2023-12-22T08:46:00;641.40;;;595.90;;
19940;SDS011;10132;50.864;5.176;2023-12-22T08:48:02;495.80;;;466.07;;
19940;SDS011;10132;50.864;5.176;2023-12-22T08:50:07;459.03;;;430.70;;
19940;SDS011;10132;50.864;5.176;2023-12-22T08:52:10;477.50;;;442.93;;
19940;SDS011;10132;50.864;5.176;2023-12-22T08:54:15;305.20;;;288.27;;
19940;SDS011;10132;50.864;5.176;2023-12-22T08:56:17;247.27;;;233.10;;
19940;SDS011;10132;50.864;5.176;2023-12-22T08:58:18;224.73;;;212.27;;
19940;SDS011;10132;50.864;5.176;2023-12-22T09:00:20;344.30;;;324.00;;
19940;SDS011;10132;50.864;5.176;2023-12-22T09:02:21;261.93;;;247.67;;
19940;SDS011;10132;50.864;5.176;2023-12-22T09:04:23;483.93;;;445.23;;
19940;SDS011;10132;50.864;5.176;2023-12-22T09:06:25;249.90;;;236.57;;
19940;SDS011;10132;50.864;5.176;2023-12-22T09:08:27;342.70;;;321.70;;
19940;SDS011;10132;50.864;5.176;2023-12-22T09:10:29;271.20;;;253.30;;
19940;SDS011;10132;50.864;5.176;2023-12-22T09:12:32;126.67;;;119.80;;
19940;SDS011;10132;50.864;5.176;2023-12-22T09:14:33;184.93;;;174.40;;
19940;SDS011;10132;50.864;5.176;2023-12-22T09:16:35;361.10;;;338.57;;
19940;SDS011;10132;50.864;5.176;2023-12-22T09:18:37;308.80;;;289.07;;
19940;SDS011;10132;50.864;5.176;2023-12-22T09:20:39;508.87;;;463.60;;
19940;SDS011;10132;50.864;5.176;2023-12-22T09:22:41;264.17;;;248.57;;
19940;SDS011;10132;50.864;5.176;2023-12-22T09:24:43;287.70;;;270.97;;
19940;SDS011;10132;50.864;5.176;2023-12-22T09:26:45;319.93;;;302.40;;
19940;SDS011;10132;50.864;5.176;2023-12-22T09:28:47;341.87;;;321.17;;
19940;SDS011;10132;50.864;5.176;2023-12-22T09:30:49;466.57;;;436.10;;
19940;SDS011;10132;50.864;5.176;2023-12-22T09:32:51;445.70;;;418.53;;
19940;SDS011;10132;50.864;5.176;2023-12-22T09:34:53;414.43;;;388.50;;
19940;SDS011;10132;50.864;5.176;2023-12-22T09:36:59;331.00;;;308.47;;
19940;SDS011;10132;50.864;5.176;2023-12-22T09:39:01;386.20;;;362.80;;
19940;SDS011;10132;50.864;5.176;2023-12-22T09:41:03;388.30;;;366.67;;
19940;SDS011;10132;50.864;5.176;2023-12-22T09:43:07;468.87;;;438.17;;
19940;SDS011;10132;50.864;5.176;2023-12-22T09:45:10;630.20;;;572.63;;
19940;SDS011;10132;50.864;5.176;2023-12-22T09:47:12;412.70;;;383.13;;
19940;SDS011;10132;50.864;5.176;2023-12-22T09:49:15;532.13;;;492.80;;
19940;SDS011;10132;50.864;5.176;2023-12-22T09:51:20;547.20;;;511.43;;
19940;SDS011;10132;50.864;5.176;2023-12-22T09:53:22;543.13;;;502.17;;
19940;SDS011;10132;50.864;5.176;2023-12-22T09:55:27;683.37;;;625.77;;
19940;SDS011;10132;50.864;5.176;2023-12-22T09:57:31;415.23;;;390.70;;
19940;SDS011;10132;50.864;5.176;2023-12-22T09:59:36;464.73;;;434.77;;
19940;SDS011;10132;50.864;5.176;2023-12-22T10:01:40;757.50;;;697.97;;
19940;SDS011;10132;50.864;5.176;2023-12-22T10:03:45;751.13;;;683.53;;
19940;SDS011;10132;50.864;5.176;2023-12-22T10:05:47;592.30;;;554.70;;
19940;SDS011;10132;50.864;5.176;2023-12-22T10:07:50;620.10;;;580.23;;
19940;SDS011;10132;50.864;5.176;2023-12-22T10:09:51;589.27;;;549.53;;
19940;SDS011;10132;50.864;5.176;2023-12-22T10:11:55;640.10;;;598.10;;
19940;SDS011;10132;50.864;5.176;2023-12-22T10:13:58;509.93;;;480.93;;
19940;SDS011;10132;50.864;5.176;2023-12-22T10:16:02;629.43;;;571.57;;
19940;SDS011;10132;50.864;5.176;2023-12-22T10:18:05;521.90;;;487.53;;
19940;SDS011;10132;50.864;5.176;2023-12-22T10:20:08;694.70;;;621.83;;
19940;SDS011;10132;50.864;5.176;2023-12-22T10:22:09;563.77;;;528.97;;
19940;SDS011;10132;50.864;5.176;2023-12-22T10:26:42;580.40;;;540.90;;
19940;SDS011;10132;50.864;5.176;2023-12-22T10:28:46;500.67;;;469.90;;
19940;SDS011;10132;50.864;5.176;2023-12-22T10:30:47;530.10;;;495.57;;
19940;SDS011;10132;50.864;5.176;2023-12-22T10:32:52;583.23;;;544.23;;
19940;SDS011;10132;50.864;5.176;2023-12-22T10:34:55;600.33;;;561.40;;
19940;SDS011;10132;50.864;5.176;2023-12-22T10:36:58;603.80;;;563.87;;
19940;SDS011;10132;50.864;5.176;2023-12-22T10:39:00;513.63;;;478.80;;
19940;SDS011;10132;50.864;5.176;2023-12-22T10:41:03;500.80;;;455.73;;
19940;SDS011;10132;50.864;5.176;2023-12-22T10:43:06;730.67;;;660.07;;
19940;SDS011;10132;50.864;5.176;2023-12-22T10:45:10;657.73;;;599.27;;
19940;SDS011;10132;50.864;5.176;2023-12-22T10:47:13;614.43;;;574.70;;
19940;SDS011;10132;50.864;5.176;2023-12-22T10:49:16;596.13;;;543.47;;
19940;SDS011;10132;50.864;5.176;2023-12-22T10:51:19;445.27;;;413.83;;
19940;SDS011;10132;50.864;5.176;2023-12-22T10:53:20;590.43;;;547.17;;
19940;SDS011;10132;50.864;5.176;2023-12-22T10:55:24;672.97;;;622.77;;
19940;SDS011;10132;50.864;5.176;2023-12-22T10:57:26;719.50;;;664.00;;
19940;SDS011;10132;50.864;5.176;2023-12-22T10:59:28;696.77;;;642.60;;
19940;SDS011;10132;50.864;5.176;2023-12-22T11:01:31;711.43;;;656.03;;
19940;SDS011;10132;50.864;5.176;2023-12-22T11:03:34;762.73;;;705.57;;
19940;SDS011;10132;50.864;5.176;2023-12-22T11:05:42;566.73;;;528.90;;
19940;SDS011;10132;50.864;5.176;2023-12-22T11:07:48;429.77;;;404.57;;
19940;SDS011;10132;50.864;5.176;2023-12-22T11:09:51;533.40;;;494.07;;
19940;SDS011;10132;50.864;5.176;2023-12-22T11:11:55;452.20;;;423.43;;
19940;SDS011;10132;50.864;5.176;2023-12-22T11:13:57;341.83;;;322.53;;
19940;SDS011;10132;50.864;5.176;2023-12-22T11:16:00;433.13;;;408.57;;
19940;SDS011;10132;50.864;5.176;2023-12-22T11:18:03;438.10;;;413.10;;
19940;SDS011;10132;50.864;5.176;2023-12-22T11:20:06;512.27;;;482.00;;
19940;SDS011;10132;50.864;5.176;2023-12-22T11:22:11;466.67;;;440.23;;
19940;SDS011;10132;50.864;5.176;2023-12-22T11:24:15;505.37;;;475.53;;
19940;SDS011;10132;50.864;5.176;2023-12-22T11:26:18;588.13;;;552.13;;
19940;SDS011;10132;50.864;5.176;2023-12-22T11:28:21;638.87;;;596.90;;
19940;SDS011;10132;50.864;5.176;2023-12-22T11:30:25;511.83;;;474.80;;
19940;SDS011;10132;50.864;5.176;2023-12-22T11:32:28;484.30;;;445.00;;
19940;SDS011;10132;50.864;5.176;2023-12-22T11:34:30;206.37;;;195.47;;
19940;SDS011;10132;50.864;5.176;2023-12-22T11:36:33;596.77;;;542.40;;
19940;SDS011;10132;50.864;5.176;2023-12-22T11:38:39;584.73;;;539.70;;
19940;SDS011;10132;50.864;5.176;2023-12-22T11:40:42;437.30;;;410.80;;